Time;durP1;ratioP1;P1;durP2;ratioP2;P2;SDS_P1;SDS_P2;PMS_P1;PMS_P2;Temp;Humidity;BMP_temperature;BMP_pressure;BME280_temperature;BME280_humidity;BME280_pressure;Samples;Min_cycle;Max_cycle;Signal;HPM_P1;HPM_P2
2022/12/06 00:01:09;;;;;;;15.93;7.85;;;;;;;1.72;77.63;92826.59;2071325;69;20187;-77
2022/12/06 00:03:36;;;;;;;16.67;8.73;;;;;;;1.75;78.73;92825.53;2071138;69;20216;-78
2022/12/06 00:06:21;;;;;;;12.10;7.10;;;;;;;1.81;77.35;92817.00;2067854;69;20168;-80
2022/12/06 00:08:48;;;;;;;8.27;4.90;;;;;;;1.75;77.60;92822.00;2067706;69;20527;-80
2022/12/06 00:11:22;;;;;;;10.52;5.40;;;;;;;1.35;80.74;92827.22;2071373;69;20593;-80
2022/12/06 00:13:52;;;;;;;10.23;5.95;;;;;;;1.60;79.52;92831.00;2071295;69;20140;-78
2022/12/06 00:16:18;;;;;;;8.93;5.50;;;;;;;1.70;78.68;92823.66;2071294;69;20156;-77
2022/12/06 00:18:45;;;;;;;11.65;5.80;;;;;;;1.69;77.27;92821.41;2071360;69;20509;-76
2022/12/06 00:21:14;;;;;;;9.63;6.07;;;;;;;1.51;78.13;92820.44;2071515;69;20149;-77
2022/12/06 00:23:53;;;;;;;9.85;6.10;;;;;;;1.41;77.34;92825.75;2072612;69;20271;-76
2022/12/06 00:26:19;;;;;;;10.48;5.75;;;;;;;1.17;78.55;92826.19;2074724;69;20240;-76
2022/12/06 00:28:46;;;;;;;14.60;5.80;;;;;;;1.43;78.94;92819.69;2071256;69;20158;-77
2022/12/06 00:31:18;;;;;;;9.63;5.20;;;;;;;1.44;77.89;92823.94;2071220;69;20128;-78
2022/12/06 00:33:45;;;;;;;;;;;;;;;1.32;79.12;92825.53;2074968;69;20156;-78
2022/12/06 00:36:19;;;;;;;9.70;5.63;;;;;;;1.28;79.53;92823.09;2074620;69;20060;-77
2022/12/06 00:38:47;;;;;;;8.80;5.55;;;;;;;1.37;77.98;92827.41;2074621;69;20219;-76
2022/12/06 00:41:16;;;;;;;8.90;5.47;;;;;;;1.39;78.07;92833.91;2074670;69;20155;-76
2022/12/06 00:43:42;;;;;;;8.77;5.00;;;;;;;1.36;77.99;92840.53;2074850;69;20155;-77
2022/12/06 00:46:15;;;;;;;9.43;5.00;;;;;;;1.34;77.86;92834.78;2074620;69;20271;-77
2022/12/06 00:48:41;;;;;;;15.10;4.82;;;;;;;1.27;76.73;92833.44;2074651;69;20273;-79
2022/12/06 00:51:06;;;;;;;7.35;4.30;;;;;;;1.29;78.05;92838.47;2074698;69;20147;-77
2022/12/06 00:53:32;;;;;;;7.75;4.85;;;;;;;1.18;79.63;92845.06;2074745;69;20143;-79
2022/12/06 00:55:57;;;;;;;10.32;5.72;;;;;;;1.05;79.55;92845.16;2071406;69;20145;-79
2022/12/06 00:58:23;;;;;;;9.45;5.65;;;;;;;1.22;78.87;92842.69;2074695;69;20521;-79
2022/12/06 01:00:49;;;;;;;9.30;5.75;;;;;;;1.20;78.31;92836.94;2074930;69;20193;-79
2022/12/06 01:03:14;;;;;;;11.15;5.38;;;;;;;1.13;77.71;92839.66;2074865;69;20164;-78
2022/12/06 01:05:45;;;;;;;6.60;4.30;;;;;;;1.15;77.93;92835.06;2074925;69;20151;-77
2022/12/06 01:08:11;;;;;;;13.95;5.90;;;;;;;0.95;80.02;92846.97;2071519;69;20683;-76
2022/12/06 01:10:37;;;;;;;8.75;4.93;;;;;;;1.17;79.08;92851.16;2074816;69;20291;-79
2022/12/06 01:13:07;;;;;;;9.10;4.95;;;;;;;1.10;78.20;92852.63;2074965;69;20580;-77
2022/12/06 01:15:36;;;;;;;8.02;4.60;;;;;;;1.09;78.51;92845.56;2074850;69;20176;-77
2022/12/06 01:18:03;;;;;;;8.35;5.07;;;;;;;1.08;78.53;92854.44;2074661;69;20259;-78
2022/12/06 01:20:29;;;;;;;7.10;4.60;;;;;;;0.97;77.45;92849.94;2074636;69;20140;-77
2022/12/06 01:22:54;;;;;;;7.63;4.65;;;;;;;0.92;77.72;92846.03;2074705;69;20279;-78
2022/12/06 01:25:21;;;;;;;6.55;4.32;;;;;;;0.82;78.61;92849.81;2074761;69;20124;-78
2022/12/06 01:27:46;;;;;;;7.70;4.72;;;;;;;0.85;78.48;92848.75;2074740;69;20161;-77
2022/12/06 01:30:12;;;;;;;8.43;4.30;;;;;;;0.78;78.10;92855.72;2074609;69;20250;-77
2022/12/06 01:32:38;;;;;;;7.70;4.80;;;;;;;0.91;77.87;92854.88;2074674;69;20147;-76
2022/12/06 01:35:04;;;;;;;7.07;4.30;;;;;;;0.79;78.12;92853.69;2071179;69;20146;-76
2022/12/06 01:37:29;;;;;;;7.07;4.78;;;;;;;0.65;78.42;92853.06;2074654;69;20179;-76
2022/12/06 01:39:56;;;;;;;9.60;5.00;;;;;;;0.68;78.72;92854.72;2074638;69;20585;-76
2022/12/06 01:42:22;;;;;;;9.00;4.70;;;;;;;0.69;78.17;92867.31;2074581;69;20207;-77
2022/12/06 01:44:54;;;;;;;9.20;4.90;;;;;;;0.69;78.04;92856.22;2075016;69;20163;-78
2022/12/06 01:47:22;;;;;;;7.35;4.63;;;;;;;0.56;77.51;92853.53;2074808;69;20246;-76
2022/12/06 01:50:14;;;;;;;8.10;4.75;;;;;;;0.56;77.97;92857.03;2071322;69;20164;-76
2022/12/06 01:53:00;;;;;;;16.27;4.28;;;;;;;0.33;77.99;92851.31;2074819;69;20132;-77
2022/12/06 01:55:30;;;;;;;7.82;4.00;;;;;;;0.24;77.99;92858.06;2074886;69;20209;-77
2022/12/06 01:57:59;;;;;;;39.03;5.15;;;;;;;0.22;78.61;92862.66;2074466;69;20202;-77
2022/12/06 02:00:25;;;;;;;29.92;5.63;;;;;;;0.15;79.63;92853.00;2071432;69;20144;-76
2022/12/06 02:02:53;;;;;;;66.85;5.93;;;;;;;0.07;79.96;92852.19;2074495;69;20610;-77
2022/12/06 02:05:21;;;;;;;44.50;6.47;;;;;;;0.08;80.33;92859.19;2074815;69;20602;-77
2022/12/06 02:07:47;;;;;;;55.75;6.45;;;;;;;0.19;79.52;92852.66;2074715;69;20143;-77
2022/12/06 02:10:13;;;;;;;33.20;5.43;;;;;;;-0.10;80.01;92855.31;2074700;69;20238;-77
2022/12/06 02:12:39;;;;;;;21.38;5.60;;;;;;;0.02;80.54;92849.56;2074537;69;20147;-77
2022/12/06 02:15:05;;;;;;;10.68;5.47;;;;;;;0.08;80.50;92844.63;2074648;69;20618;-77
2022/12/06 02:17:57;;;;;;;9.95;5.85;;;;;;;0.25;80.19;92859.53;2074690;69;20135;-76
2022/12/06 02:20:35;;;;;;;8.35;5.20;;;;;;;0.25;79.21;92856.78;2074829;69;20185;-78
2022/12/06 02:23:04;;;;;;;8.30;5.15;;;;;;;0.23;79.34;92839.25;2071360;69;20229;-79
2022/12/06 02:26:09;;;;;;;10.65;5.43;;;;;;;0.26;78.90;92849.22;2074688;69;20591;-77
2022/12/06 02:28:59;;;;;;;21.67;6.20;;;;;;;0.11;80.79;92854.63;2067424;69;20148;-78
2022/12/06 02:31:32;;;;;;;74.88;7.22;;;;;;;0.05;81.39;92845.72;2068424;69;20152;-76
2022/12/06 02:34:15;;;;;;;25.13;6.47;;;;;;;0.14;80.60;92851.53;2067767;69;20144;-76
2022/12/06 02:37:13;;;;;;;42.90;6.75;;;;;;;0.09;80.90;92844.09;2068046;69;20180;-76
2022/12/06 02:39:44;;;;;;;18.75;6.40;;;;;;;0.24;80.31;92846.25;2067800;69;20133;-77
2022/12/06 02:42:19;;;;;;;36.95;6.75;;;;;;;0.24;79.91;92837.94;2068169;69;20156;-77
2022/12/06 02:45:06;;;;;;;60.53;6.75;;;;;;;0.08;81.84;92842.59;2067963;69;20153;-76
2022/12/06 02:47:37;;;;;;;48.53;7.10;;;;;;;0.09;81.53;92837.78;2059324;69;20156;-76
2022/12/06 02:50:10;;;;;;;42.67;6.53;;;;;;;0.04;80.98;92833.13;2067508;69;20148;-75
2022/12/06 02:52:39;;;;;;;62.65;9.02;;;;;;;-0.02;81.60;92836.78;2063795;69;20220;-74
2022/12/06 02:55:07;;;;;;;31.70;8.25;;;;;;;-0.05;81.25;92829.53;2067823;69;20164;-76
2022/12/06 02:57:42;;;;;;;39.58;8.23;;;;;;;-0.51;81.32;92831.84;2067764;69;20505;-76
2022/12/06 03:00:49;;;;;;;55.00;7.57;;;;;;;-0.38;82.42;92827.56;2067698;69;20210;-76
2022/12/06 03:03:27;;;;;;;29.10;7.43;;;;;;;-0.32;81.74;92834.47;2056915;69;20170;-76
2022/12/06 03:06:01;;;;;;;14.98;7.80;;;;;;;-0.25;80.90;92833.03;2056920;69;20134;-76
2022/12/06 03:08:51;;;;;;;26.52;7.70;;;;;;;-0.17;80.73;92836.63;2057037;69;20208;-75
2022/12/06 03:11:18;;;;;;;9.70;6.40;;;;;;;-0.22;80.24;92828.47;2057523;69;20150;-76
2022/12/06 03:14:05;;;;;;;17.27;6.90;;;;;;;-0.32;80.33;92823.41;2057419;69;20324;-76
2022/12/06 03:16:44;;;;;;;16.33;6.00;;;;;;;-0.21;80.53;92825.16;2057392;69;20249;-78
2022/12/06 03:19:11;;;;;;;10.40;5.80;;;;;;;-0.34;81.94;92816.91;2057205;69;20149;-78
2022/12/06 03:21:45;;;;;;;13.05;5.35;;;;;;;-0.35;81.23;92810.63;2057807;69;20161;-77
2022/12/06 03:24:14;;;;;;;8.15;5.18;;;;;;;-0.24;79.40;92804.09;2057925;69;20142;-77
2022/12/06 03:26:44;;;;;;;7.78;5.18;;;;;;;-0.68;81.26;92806.59;2057713;69;20221;-77
2022/12/06 03:29:14;;;;;;;8.80;4.75;;;;;;;-0.56;81.62;92793.25;2057563;69;20150;-76
2022/12/06 03:31:42;;;;;;;7.53;4.50;;;;;;;-0.47;80.84;92808.66;2057452;69;20299;-76
2022/12/06 03:34:20;;;;;;;7.30;4.32;;;;;;;-0.33;80.30;92794.22;2057478;69;20158;-77
2022/12/06 03:36:48;;;;;;;6.63;4.63;;;;;;;-0.60;81.22;92792.81;2062362;69;20202;-76
2022/12/06 03:39:22;;;;;;;7.25;4.25;;;;;;;-0.39;79.85;92796.38;2068373;69;20141;-77
2022/12/06 03:41:54;;;;;;;6.22;4.10;;;;;;;-0.29;79.27;92793.91;2071547;69;20232;-76
2022/12/06 03:44:20;;;;;;;7.25;3.85;;;;;;;-0.23;78.54;92796.53;2068230;69;20596;-77
2022/12/06 03:46:55;;;;;;;5.07;3.38;;;;;;;-0.31;78.36;92799.97;2068217;69;20195;-79
2022/12/06 03:49:38;;;;;;;5.35;3.13;;;;;;;-0.18;77.78;92795.66;2071836;69;20600;-79
2022/12/06 03:52:08;;;;;;;5.65;3.95;;;;;;;-0.36;77.93;92800.84;2071787;69;20159;-79
2022/12/06 03:54:38;;;;;;;6.90;4.38;;;;;;;-0.52;78.81;92791.63;2071690;69;20202;-80
2022/12/06 03:57:14;;;;;;;5.72;3.75;;;;;;;-0.58;79.96;92799.31;2072134;69;20156;-79
2022/12/06 03:59:52;;;;;;;6.05;3.72;;;;;;;-0.60;79.90;92779.75;2071559;69;20133;-79
2022/12/06 04:02:20;;;;;;;3.85;2.60;;;;;;;-0.70;79.87;92784.25;2069054;69;20145;-81
2022/12/06 04:04:46;;;;;;;2.90;2.13;;;;;;;-0.31;77.78;92786.16;2073516;69;20215;-78
2022/12/06 04:07:12;;;;;;;3.90;2.97;;;;;;;-0.40;77.61;92783.84;2069641;69;20195;-79
2022/12/06 04:10:01;;;;;;;4.00;2.80;;;;;;;-0.30;77.51;92792.41;2071962;69;20155;-79
2022/12/06 04:15:13;;;;;;;4.65;2.83;;;;;;;-0.32;76.33;92787.44;2071413;69;20132;-76
2022/12/06 04:20:28;;;;;;;12.98;9.32;;;;;;;-0.57;78.04;92791.75;2071351;69;20168;-77
2022/12/06 04:23:04;;;;;;;9.75;7.22;;;;;;;-0.48;78.51;92794.06;2071280;69;20144;-77
2022/12/06 04:25:35;;;;;;;6.65;4.93;;;;;;;-0.42;77.02;92783.63;2071398;69;20612;-77
2022/12/06 04:39:00;;;;;;;4.55;3.10;;;;;;;-0.46;76.52;92777.66;2071152;69;20152;-78
2022/12/06 04:44:10;;;;;;;3.60;2.20;;;;;;;-0.48;76.22;92783.00;2071509;69;20183;-78
2022/12/06 04:46:36;;;;;;;3.28;2.22;;;;;;;-0.44;75.86;92772.38;2071000;69;20251;-79
2022/12/06 04:49:01;;;;;;;7.28;2.25;;;;;;;-0.52;75.50;92757.72;2070834;69;20214;-78
2022/12/06 04:51:27;;;;;;;5.05;2.10;;;;;;;-0.34;75.78;92773.38;2068008;69;20267;-77
2022/12/06 04:53:53;;;;;;;12.63;5.15;;;;;;;-0.68;76.11;92775.44;2071412;69;20228;-77
2022/12/06 04:56:18;;;;;;;22.13;9.40;;;;;;;-0.72;78.05;92773.00;2071465;69;20514;-78
2022/12/06 04:58:44;;;;;;;17.73;7.63;;;;;;;-0.67;77.36;92769.34;2071725;69;20179;-78
2022/12/06 05:01:10;;;;;;;16.42;7.45;;;;;;;-0.58;76.54;92776.47;2071647;69;20156;-78
2022/12/06 05:03:37;;;;;;;12.40;6.28;;;;;;;-0.49;75.96;92775.25;2065045;69;20173;-78
2022/12/06 05:06:03;;;;;;;13.15;6.65;;;;;;;-0.86;77.53;92763.25;2070916;69;20135;-78
2022/12/06 05:08:29;;;;;;;18.73;8.32;;;;;;;-0.90;77.26;92777.38;2070726;69;20523;-78
2022/12/06 05:10:55;;;;;;;23.23;9.68;;;;;;;-0.74;77.02;92774.78;2071453;69;20183;-78
2022/12/06 05:13:22;;;;;;;26.35;10.40;;;;;;;-0.65;76.67;92775.06;2071491;69;20172;-78
2022/12/06 05:15:54;;;;;;;23.08;9.30;;;;;;;-0.65;76.26;92774.34;2070858;69;20144;-78
2022/12/06 05:18:20;;;;;;;17.92;6.80;;;;;;;-0.56;76.13;92776.66;2071420;69;20152;-78
2022/12/06 05:20:46;;;;;;;14.30;5.63;;;;;;;-0.70;75.59;92769.69;2071409;69;20159;-78
2022/12/06 05:23:11;;;;;;;9.85;4.53;;;;;;;-0.64;76.15;92773.06;2071488;69;20137;-78
2022/12/06 05:25:37;;;;;;;8.02;3.33;;;;;;;-0.60;75.97;92776.97;2071608;69;20571;-78
2022/12/06 05:28:03;;;;;;;5.38;2.60;;;;;;;-0.62;75.86;92774.03;2071258;69;20178;-78
2022/12/06 05:30:29;;;;;;;5.10;2.97;;;;;;;-0.49;75.29;92778.03;2071262;69;20156;-78
2022/12/06 05:32:55;;;;;;;3.47;1.92;;;;;;;-0.53;74.94;92767.28;2071388;69;20449;-78
2022/12/06 05:35:20;;;;;;;3.58;1.58;;;;;;;-0.52;74.70;92763.97;2071082;69;20710;-78
2022/12/06 05:37:46;;;;;;;7.20;3.58;;;;;;;-1.02;76.16;92763.06;2070754;69;20272;-79
2022/12/06 05:40:12;;;;;;;10.98;6.25;;;;;;;-0.68;76.13;92764.38;2070934;69;20160;-78
2022/12/06 05:42:41;;;;;;;9.85;5.25;;;;;;;-0.99;76.23;92754.97;2070996;69;20140;-79
2022/12/06 05:45:07;;;;;;;8.68;4.80;;;;;;;-0.84;76.62;92766.94;2070763;69;20237;-79
2022/12/06 05:47:33;;;;;;;8.75;4.97;;;;;;;-0.80;75.75;92759.06;2071083;69;20221;-79
2022/12/06 05:49:58;;;;;;;11.65;6.18;;;;;;;-0.78;75.90;92766.81;2070907;69;20144;-78
2022/12/06 05:52:24;;;;;;;7.90;4.72;;;;;;;-0.69;75.31;92768.41;2067724;69;20310;-78
2022/12/06 05:54:51;;;;;;;12.75;7.35;;;;;;;-0.82;76.07;92764.41;2067607;69;20151;-78
2022/12/06 05:57:21;;;;;;;11.10;5.63;;;;;;;-0.86;74.94;92772.28;2071037;69;20508;-78
2022/12/06 05:59:51;;;;;;;7.53;4.45;;;;;;;-0.89;74.77;92767.81;2070718;69;20179;-78
2022/12/06 06:02:17;;;;;;;8.10;4.47;;;;;;;-0.80;75.80;92775.66;2070940;69;20192;-78
2022/12/06 06:04:42;;;;;;;11.00;5.20;;;;;;;-0.92;74.86;92768.13;2067456;69;20221;-78
2022/12/06 06:07:08;;;;;;;12.98;6.00;;;;;;;-1.17;76.01;92773.91;2067551;69;20171;-78
2022/12/06 06:09:33;;;;;;;15.15;6.85;;;;;;;-0.94;76.92;92773.47;2071072;69;20587;-78
2022/12/06 06:12:02;;;;;;;11.88;5.63;;;;;;;-1.00;76.05;92770.81;2071075;69;20152;-78
2022/12/06 06:14:27;;;;;;;6.07;3.55;;;;;;;-0.94;75.61;92768.69;2071163;69;20319;-78
2022/12/06 06:16:53;;;;;;;5.38;3.38;;;;;;;-1.01;75.33;92766.56;2067595;69;20219;-78
2022/12/06 06:19:21;;;;;;;7.35;3.88;;;;;;;-0.94;75.89;92767.94;2071258;69;20583;-78
2022/12/06 06:21:48;;;;;;;8.93;4.20;;;;;;;-1.02;74.94;92765.81;2070868;69;20326;-78
2022/12/06 06:24:13;;;;;;;6.38;3.72;;;;;;;-0.90;75.64;92771.88;2070897;69;20144;-78
2022/12/06 06:26:39;;;;;;;11.00;3.80;;;;;;;-0.88;75.47;92768.56;2070802;69;20140;-78
2022/12/06 06:29:04;;;;;;;6.28;3.42;;;;;;;-0.93;74.77;92769.41;2069586;69;20202;-80
2022/12/06 06:31:30;;;;;;;10.52;4.45;;;;;;;-1.12;75.35;92772.31;2064614;69;20144;-79
2022/12/06 06:33:56;;;;;;;9.30;4.80;;;;;;;-1.03;75.33;92763.59;2064669;69;20200;-80
2022/12/06 06:36:21;;;;;;;9.18;3.75;;;;;;;-1.15;74.69;92768.59;2064776;69;20152;-79
2022/12/06 06:38:50;;;;;;;5.97;3.70;;;;;;;-1.10;74.79;92765.00;2064669;69;20674;-78
2022/12/06 06:41:15;;;;;;;6.70;3.58;;;;;;;-1.07;74.65;92755.63;2064666;69;20143;-79
2022/12/06 06:43:41;;;;;;;8.63;4.05;;;;;;;-1.03;75.41;92763.59;2064923;69;20165;-79
2022/12/06 06:46:07;;;;;;;7.95;4.20;;;;;;;-1.07;75.64;92760.41;2065239;69;20149;-80
2022/12/06 06:48:35;;;;;;;16.77;7.25;;;;;;;-1.09;75.50;92760.94;2065247;69;20173;-79
2022/12/06 06:51:07;;;;;;;13.85;6.63;;;;;;;-1.15;75.45;92759.56;2065390;69;20153;-79
2022/12/06 06:53:33;;;;;;;23.58;10.50;;;;;;;-1.13;75.89;92749.47;2065185;69;20165;-79
2022/12/06 06:55:58;;;;;;;36.85;16.88;;;;;;;-1.12;75.65;92750.97;2065282;69;20611;-79
2022/12/06 06:58:24;;;;;;;22.30;10.52;;;;;;;-1.24;76.04;92743.44;2064835;69;20132;-78
2022/12/06 07:00:59;;;;;;;19.92;9.80;;;;;;;-1.27;75.55;92739.72;2065472;69;20155;-79
2022/12/06 07:03:26;;;;;;;26.83;11.82;;;;;;;-1.19;75.23;92746.09;2065357;69;20145;-79
2022/12/06 07:06:00;;;;;;;32.33;16.10;;;;;;;-1.14;75.62;92750.03;2064918;69;20145;-79
2022/12/06 07:08:27;;;;;;;31.95;14.20;;;;;;;-1.05;75.85;92760.63;2065467;69;20580;-79
2022/12/06 07:10:53;;;;;;;30.40;14.20;;;;;;;-1.07;75.09;92757.66;2065497;69;20243;-79
2022/12/06 07:13:21;;;;;;;29.33;13.55;;;;;;;-1.15;75.06;92759.56;2065430;69;20178;-80
2022/12/06 07:15:47;;;;;;;31.65;15.80;;;;;;;-1.17;75.34;92764.91;2068757;69;20251;-79
2022/12/06 07:18:13;;;;;;;29.92;15.35;;;;;;;-1.23;75.33;92761.50;2068850;69;20149;-79
2022/12/06 07:20:39;;;;;;;40.58;19.45;;;;;;;-1.58;77.25;92769.69;2067996;69;20194;-79
2022/12/06 07:23:04;;;;;;;43.05;18.55;;;;;;;-1.35;76.60;92764.47;2066142;69;20160;-80
2022/12/06 07:25:31;;;;;;;45.95;20.10;;;;;;;-1.48;77.02;92755.47;2064627;69;20207;-79
2022/12/06 07:27:57;;;;;;;47.05;20.65;;;;;;;-1.24;76.65;92763.50;2065189;69;20200;-79
2022/12/06 07:30:23;;;;;;;44.90;21.95;;;;;;;-1.16;75.61;92767.13;2070331;69;20191;-80
2022/12/06 07:32:49;;;;;;;43.17;17.88;;;;;;;-1.09;76.56;92755.44;2071741;69;20156;-79
2022/12/06 07:35:15;;;;;;;41.30;15.60;;;;;;;-1.06;75.04;92753.59;2071687;69;20662;-79
2022/12/06 07:37:44;;;;;;;19.05;9.65;;;;;;;-1.08;75.49;92747.88;2071866;69;20163;-79
2022/12/06 07:40:12;;;;;;;18.40;9.80;;;;;;;-1.10;74.99;92755.94;2072050;69;20166;-79
2022/12/06 07:45:22;;;;;;;22.77;11.40;;;;;;;-1.09;75.17;92758.19;2071880;69;20140;-80
2022/12/06 07:47:48;;;;;;;26.35;11.10;;;;;;;-1.08;74.82;92754.16;2071910;69;20136;-79
2022/12/06 07:50:16;;;;;;;18.73;9.25;;;;;;;-0.97;75.63;92755.91;2071885;69;20180;-80
2022/12/06 07:52:42;;;;;;;19.00;9.55;;;;;;;-0.94;74.63;92757.63;2071806;69;20175;-79
2022/12/06 07:55:10;;;;;;;29.13;14.25;;;;;;;-1.33;75.50;92728.81;2071546;69;20153;-78
2022/12/06 07:57:36;;;;;;;30.48;15.88;;;;;;;-1.12;76.13;92755.75;2071587;69;20155;-77
2022/12/06 08:00:03;;;;;;;29.00;13.93;;;;;;;-1.08;76.03;92750.66;2071830;69;20554;-78
2022/12/06 08:02:37;;;;;;;24.05;13.07;;;;;;;-1.06;75.69;92753.59;2071666;69;20698;-78
2022/12/06 08:05:03;;;;;;;31.77;14.60;;;;;;;-1.10;75.85;92756.72;2071530;69;20204;-79
2022/12/06 08:07:30;;;;;;;26.98;14.38;;;;;;;-1.02;75.30;92760.28;2071657;69;20140;-78
2022/12/06 08:09:55;;;;;;;23.88;12.70;;;;;;;-1.03;75.05;92758.06;2071708;69;20176;-79
2022/12/06 08:12:21;;;;;;;21.80;12.48;;;;;;;-0.93;75.47;92767.41;2068593;69;20246;-79
2022/12/06 08:14:47;;;;;;;26.38;13.73;;;;;;;-1.06;75.20;92754.34;2071648;69;20140;-79
2022/12/06 08:17:13;;;;;;;23.20;13.05;;;;;;;-1.11;75.16;92744.16;2071652;69;20227;-79
2022/12/06 08:19:39;;;;;;;25.45;12.40;;;;;;;-1.12;75.68;92742.66;2071456;69;20167;-78
2022/12/06 08:22:05;;;;;;;24.55;13.10;;;;;;;-0.98;75.89;92762.00;2071736;69;20136;-78
2022/12/06 08:24:30;;;;;;;21.15;11.57;;;;;;;-1.02;75.39;92757.53;2068307;69;20141;-79
2022/12/06 08:26:58;;;;;;;20.23;11.60;;;;;;;-0.98;75.43;92754.44;2068282;69;20151;-79
2022/12/06 08:29:24;;;;;;;20.73;11.43;;;;;;;-0.92;76.17;92751.56;2068078;69;20183;-76
2022/12/06 08:31:50;;;;;;;20.98;10.93;;;;;;;-0.92;74.89;92752.28;2071484;69;20136;-76
2022/12/06 08:34:16;;;;;;;13.98;8.45;;;;;;;-0.89;76.02;92754.00;2071669;69;20139;-76
2022/12/06 08:36:41;;;;;;;18.80;10.32;;;;;;;-0.57;77.45;92758.59;2071831;69;20133;-78
2022/12/06 08:39:10;;;;;;;23.55;12.32;;;;;;;-0.01;77.27;92769.06;2075499;69;20512;-78
2022/12/06 08:41:54;;;;;;;28.50;12.02;;;;;;;0.28;76.19;92766.34;2072211;69;20159;-78
2022/12/06 08:44:20;;;;;;;23.40;11.63;;;;;;;0.70;76.30;92780.84;2072947;69;20140;-77
2022/12/06 08:46:46;;;;;;;21.08;12.18;;;;;;;1.01;76.26;92772.72;2071706;69;20225;-77
2022/12/06 08:49:14;;;;;;;19.80;11.63;;;;;;;1.36;76.31;92776.00;2068224;69;20604;-77
2022/12/06 08:51:40;;;;;;;18.77;10.57;;;;;;;1.70;75.22;92768.16;2071541;69;20164;-78
2022/12/06 08:54:08;;;;;;;17.75;9.93;;;;;;;1.89;73.80;92769.84;2068343;69;20146;-78
2022/12/06 08:56:35;;;;;;;13.40;8.05;;;;;;;1.93;73.74;92762.63;2071718;69;20596;-78
2022/12/06 08:59:01;;;;;;;18.15;10.32;;;;;;;1.39;72.50;92769.34;2071458;69;20190;-78
2022/12/06 09:01:29;;;;;;;18.67;10.93;;;;;;;2.04;73.12;92756.72;2071459;69;20239;-78
2022/12/06 09:03:58;;;;;;;16.92;10.85;;;;;;;2.58;72.00;92753.94;2071410;69;20600;-78
2022/12/06 09:06:23;;;;;;;17.55;11.18;;;;;;;2.26;71.39;92754.50;2071352;69;20150;-78
2022/12/06 09:08:49;;;;;;;17.17;9.43;;;;;;;2.43;70.86;92749.13;2071457;69;20152;-77
2022/12/06 09:11:16;;;;;;;13.60;8.80;;;;;;;2.95;70.06;92740.50;2071516;69;20213;-77
2022/12/06 09:13:42;;;;;;;19.48;9.77;;;;;;;3.21;70.25;92744.88;2071524;69;20148;-78
2022/12/06 09:16:10;;;;;;;19.60;8.38;;;;;;;2.44;67.38;92745.06;2071440;69;20151;-77
2022/12/06 09:18:36;;;;;;;15.50;7.28;;;;;;;3.47;67.62;92747.16;2071475;69;20159;-77
2022/12/06 09:21:06;;;;;;;12.75;6.70;;;;;;;3.85;66.62;92740.66;2071621;69;20227;-79
2022/12/06 09:23:34;;;;;;;12.25;6.35;;;;;;;3.85;65.79;92751.81;2071535;69;20175;-80
2022/12/06 09:26:00;;;;;;;8.90;5.10;;;;;;;3.19;66.06;92742.66;2071545;69;20152;-78
2022/12/06 09:28:27;;;;;;;11.15;5.07;;;;;;;4.15;65.79;92747.34;2071409;69;20220;-78
2022/12/06 09:30:53;;;;;;;9.23;5.72;;;;;;;4.72;64.81;92741.66;2071555;69;20252;-78
2022/12/06 09:33:19;;;;;;;10.68;6.20;;;;;;;4.58;62.59;92741.25;2071364;69;20477;-78
2022/12/06 09:35:44;;;;;;;7.72;4.10;;;;;;;4.62;62.05;92743.59;2071379;69;20148;-75
2022/12/06 09:38:10;;;;;;;6.35;3.55;;;;;;;4.72;61.38;92750.03;2071407;69;20557;-77
2022/12/06 09:41:04;;;;;;;5.30;3.15;;;;;;;3.85;62.21;92739.91;2071502;69;20153;-78
2022/12/06 09:43:51;;;;;;;5.30;3.80;;;;;;;4.49;59.55;92732.75;2071420;69;20140;-79
2022/12/06 09:47:06;;;;;;;6.38;3.90;;;;;;;4.85;57.76;92740.59;2071486;69;20172;-78
2022/12/06 09:49:47;;;;;;;7.05;3.35;;;;;;;5.32;57.05;92739.56;2071371;69;20179;-79
2022/12/06 09:52:45;;;;;;;5.18;2.90;;;;;;;6.01;55.71;92741.50;2071391;69;20162;-78
2022/12/06 09:55:22;;;;;;;7.53;3.70;;;;;;;5.88;55.75;92732.72;2071522;69;20228;-77
2022/12/06 09:58:26;;;;;;;9.10;5.63;;;;;;;6.90;55.25;92729.28;2071294;69;20135;-76
2022/12/06 10:01:31;;;;;;;9.82;5.45;;;;;;;5.70;53.62;92721.59;2071475;69;20217;-76
2022/12/06 10:04:12;;;;;;;6.45;3.60;;;;;;;6.26;54.44;92718.94;2068655;69;20240;-76
2022/12/06 10:07:06;;;;;;;5.20;2.30;;;;;;;7.37;51.05;92716.63;2071309;69;20163;-76
2022/12/06 10:09:59;;;;;;;3.85;2.55;;;;;;;7.96;50.21;92709.63;2071365;69;20144;-76
2022/12/06 10:12:28;;;;;;;;;;;;;;;8.47;49.11;92710.34;2068036;69;20152;-76
2022/12/06 10:15:14;;;;;;;4.78;2.17;;;;;;;8.11;47.73;92717.72;2071389;69;20094;-77
2022/12/06 10:17:45;;;;;;;3.72;2.10;;;;;;;7.64;47.49;92724.88;2071250;69;20147;-77
2022/12/06 10:20:22;;;;;;;3.65;2.50;;;;;;;8.54;48.89;92720.66;2071558;69;20168;-78
2022/12/06 10:23:22;;;;;;;4.93;3.30;;;;;;;8.85;47.87;92723.47;2071828;69;20140;-77
2022/12/06 10:26:03;;;;;;;3.22;2.25;;;;;;;9.06;44.90;92724.81;2071865;69;20152;-77
2022/12/06 10:29:15;;;;;;;5.15;2.40;;;;;;;9.73;45.18;92726.38;2071872;69;20309;-77
2022/12/06 10:31:57;;;;;;;3.85;2.25;;;;;;;9.87;43.63;92720.94;2071626;69;20144;-81
2022/12/06 10:34:41;;;;;;;7.72;5.07;;;;;;;8.32;43.26;92716.31;2065469;69;20218;-78
2022/12/06 10:37:12;;;;;;;14.32;8.48;;;;;;;9.27;43.85;92716.41;2071793;69;20263;-78
2022/12/06 10:39:54;;;;;;;17.88;10.90;;;;;;;11.29;42.89;92711.25;2071689;69;20215;-77
2022/12/06 10:42:25;;;;;;;12.10;7.32;;;;;;;10.85;40.39;92713.63;2071760;69;20145;-78
2022/12/06 10:47:02;;;;;;;11.65;7.72;;;;;;;11.49;40.28;92703.22;2071904;69;20140;-76
2022/12/06 10:48:00;;;;;;;15.98;9.50;;;;;;;12.62;38.78;92700.31;2071558;69;20148;-76
2022/12/06 10:50:32;;;;;;;8.65;5.65;;;;;;;13.12;37.37;92698.69;2071743;69;20147;-78
2022/12/06 10:53:08;;;;;;;6.07;3.80;;;;;;;12.44;37.49;92699.34;2071903;69;20242;-81
2022/12/06 10:55:40;;;;;;;6.82;4.32;;;;;;;12.95;36.74;92690.72;2071740;69;20223;-80
2022/12/06 10:58:20;;;;;;;6.00;3.42;;;;;;;9.52;39.45;92698.31;2071929;69;20148;-78
2022/12/06 11:01:28;;;;;;;3.85;3.00;;;;;;;10.13;39.78;92694.47;2071710;69;20160;-78
2022/12/06 11:04:21;;;;;;;9.13;3.35;;;;;;;9.57;38.98;92694.41;2053932;70;20153;-80
2022/12/06 11:06:55;;;;;;;7.75;4.07;;;;;;;9.90;38.07;92695.16;2054211;69;20189;-78
2022/12/06 11:09:50;;;;;;;7.70;4.10;;;;;;;9.00;40.11;92694.28;2054180;69;20174;-78
2022/12/06 11:12:22;;;;;;;15.73;5.75;;;;;;;8.53;41.61;92684.81;2054111;69;20164;-77
2022/12/06 11:14:53;;;;;;;13.40;5.30;;;;;;;8.98;41.74;92691.34;2054239;70;20145;-77
2022/12/06 11:17:24;;;;;;;11.65;5.85;;;;;;;9.38;42.55;92679.19;2054152;69;20153;-77
2022/12/06 11:19:58;;;;;;;6.65;3.60;;;;;;;9.78;42.21;92680.31;2054036;69;20184;-79
2022/12/06 11:22:38;;;;;;;6.07;3.25;;;;;;;9.13;39.04;92673.34;2054155;69;20340;-79
2022/12/06 11:25:08;;;;;;;6.65;3.45;;;;;;;8.31;40.39;92676.31;2054018;69;20153;-77
2022/12/06 11:27:41;;;;;;;6.93;3.05;;;;;;;8.75;40.80;92663.09;2054050;69;20173;-77
2022/12/06 11:30:17;;;;;;;5.00;2.60;;;;;;;8.33;39.73;92664.47;2048632;70;20319;-78
2022/12/06 11:32:45;;;;;;;4.00;2.38;;;;;;;8.63;41.13;92668.66;2054189;70;20146;-77
2022/12/06 11:35:18;;;;;;;7.40;3.80;;;;;;;6.87;44.17;92670.38;2067115;69;20168;-78
2022/12/06 11:37:46;;;;;;;9.05;4.50;;;;;;;7.93;42.05;92663.19;2071622;69;20227;-80
2022/12/06 11:40:24;;;;;;;15.85;8.85;;;;;;;8.71;42.67;92660.03;2071637;69;20287;-79
2022/12/06 11:42:50;;;;;;;9.10;4.68;;;;;;;8.73;42.01;92660.91;2071800;69;20156;-76
2022/12/06 11:45:32;;;;;;;21.33;13.02;;;;;;;8.71;42.84;92663.59;2071514;69;20163;-76
2022/12/06 11:48:01;;;;;;;13.65;7.50;;;;;;;8.12;42.56;92649.09;2071350;69;20159;-77
2022/12/06 11:50:32;;;;;;;12.45;5.82;;;;;;;6.94;43.32;92640.03;2071652;69;20681;-79
2022/12/06 11:53:03;;;;;;;12.90;5.65;;;;;;;7.21;43.61;92635.00;2071639;69;20245;-77
2022/12/06 11:55:35;;;;;;;9.73;5.25;;;;;;;7.82;43.73;92630.16;2071659;69;20164;-77
2022/12/06 11:58:06;;;;;;;10.43;5.47;;;;;;;7.59;43.85;92625.78;2071717;69;20155;-77
2022/12/06 12:00:32;;;;;;;9.38;5.00;;;;;;;7.90;43.76;92637.06;2071689;69;20152;-77
2022/12/06 12:02:58;;;;;;;13.70;5.75;;;;;;;6.76;45.60;92628.22;2071331;69;20493;-77
2022/12/06 12:05:25;;;;;;;6.55;4.22;;;;;;;6.70;45.89;92628.53;2071636;69;20180;-78
2022/12/06 12:08:00;;;;;;;11.57;4.30;;;;;;;7.25;44.43;92610.09;2071405;69;20246;-75
2022/12/06 12:10:37;;;;;;;8.88;3.88;;;;;;;7.77;44.08;92612.31;2071542;69;20143;-75
2022/12/06 12:16:02;;;;;;;10.98;4.50;;;;;;;7.93;44.58;92618.31;2074814;69;20176;-79